createdAt,value
2017-07-14T06:16:57.057Z,1017.850
2017-07-14T07:03:55.637Z,1017.702
2017-07-14T07:31:29.913Z,1017.573
2017-07-14T07:38:55.926Z,1017.509
2017-07-14T07:43:21.278Z,1017.458
2017-07-14T07:46:05.586Z,1017.440
2017-07-14T07:48:59.808Z,1017.415
2017-07-14T07:51:54.443Z,1017.424
2017-07-14T07:54:49.197Z,1017.393
2017-07-14T08:01:30.218Z,1017.384
2017-07-14T08:04:25.402Z,1017.318
2017-07-14T08:07:14.774Z,1017.306
2017-07-14T08:10:09.376Z,1017.332
2017-07-14T08:13:04.248Z,1017.287
2017-07-14T08:15:59.028Z,1017.261
2017-07-14T08:18:53.980Z,1017.234
2017-07-14T08:21:48.883Z,1017.257
2017-07-14T08:24:43.845Z,1017.235
2017-07-14T08:27:38.779Z,1017.217
2017-07-14T08:30:33.676Z,1017.207
2017-07-14T08:33:28.596Z,1017.192
2017-07-14T08:36:23.619Z,1017.184
2017-07-14T08:39:18.558Z,1017.091
2017-07-14T08:42:13.428Z,1017.105
2017-07-14T08:45:08.449Z,1017.127
2017-07-14T08:48:03.495Z,1017.121
2017-07-14T08:53:53.543Z,1017.131
2017-07-14T08:56:48.575Z,1017.126
2017-07-14T08:59:43.602Z,1017.102
2017-07-14T09:02:38.457Z,1017.093
2017-07-14T09:05:33.351Z,1017.076
2017-07-14T09:08:28.408Z,1017.053
2017-07-14T09:11:23.315Z,1017.038
2017-07-14T09:14:18.096Z,1017.026
2017-07-14T09:17:13.036Z,1017.038
2017-07-14T09:22:34.807Z,1017.027
2017-07-14T09:28:13.477Z,1016.998
2017-07-14T09:31:08.105Z,1016.993
2017-07-14T09:34:02.906Z,1016.962
2017-07-14T09:36:57.802Z,1016.947
2017-07-14T09:39:52.678Z,1016.945
2017-07-14T09:42:47.482Z,1016.917
2017-07-14T09:45:42.341Z,1016.907
2017-07-14T09:48:37.200Z,1016.890
2017-07-14T09:54:27.020Z,1016.961
2017-07-14T09:57:21.776Z,1016.945
2017-07-14T10:00:16.679Z,1016.948
2017-07-14T10:03:11.503Z,1016.918
2017-07-14T10:06:06.459Z,1016.927
2017-07-14T10:09:01.595Z,1016.890
2017-07-14T10:11:56.715Z,1016.894
2017-07-14T10:14:51.917Z,1016.890
2017-07-14T10:17:46.756Z,1016.899
2017-07-14T10:20:41.775Z,1016.874
2017-07-14T10:23:36.762Z,1016.831
2017-07-14T10:26:31.960Z,1016.794
2017-07-14T10:29:27.188Z,1016.749
2017-07-14T10:32:22.594Z,1016.759
2017-07-14T10:35:17.696Z,1016.724
2017-07-14T10:38:12.832Z,1016.698
2017-07-14T10:41:07.953Z,1016.681
2017-07-14T10:44:03.105Z,1016.675
2017-07-14T10:46:58.128Z,1016.660
2017-07-14T10:49:53.073Z,1016.615
2017-07-14T10:52:48.198Z,1016.591
2017-07-14T10:55:43.188Z,1016.556
2017-07-14T10:58:38.179Z,1016.547
2017-07-14T11:01:33.100Z,1016.566
2017-07-14T11:04:28.025Z,1016.584
2017-07-14T11:07:22.946Z,1016.550
2017-07-14T11:10:17.943Z,1016.542
2017-07-14T11:13:12.986Z,1016.585
2017-07-14T11:16:07.946Z,1016.560
2017-07-14T11:19:03.086Z,1016.554
2017-07-14T11:21:57.883Z,1016.522
2017-07-14T11:24:52.966Z,1016.434
2017-07-14T11:27:47.961Z,1016.370
2017-07-14T11:30:42.888Z,1016.333
2017-07-14T11:33:37.797Z,1016.283
2017-07-14T11:36:32.835Z,1016.285
2017-07-14T11:39:27.814Z,1016.269
2017-07-14T11:42:22.761Z,1016.199
2017-07-14T11:45:17.751Z,1016.183
2017-07-14T11:48:12.655Z,1016.164
2017-07-14T11:51:07.555Z,1016.083
2017-07-14T11:54:02.629Z,1016.069
2017-07-14T11:56:57.573Z,1015.986
2017-07-14T11:59:52.554Z,1015.952
2017-07-14T12:02:47.424Z,1015.939
2017-07-14T12:05:42.375Z,1015.946
2017-07-14T12:08:37.218Z,1015.898
2017-07-14T12:11:32.266Z,1015.838
2017-07-14T12:14:27.301Z,1015.799
2017-07-14T12:17:22.200Z,1015.766
2017-07-14T12:20:17.188Z,1015.772
2017-07-14T12:23:12.066Z,1015.734
2017-07-14T12:26:07.102Z,1015.734
2017-07-14T12:29:02.004Z,1015.729
2017-07-14T12:34:51.979Z,1015.689
2017-07-14T12:37:46.944Z,1015.696
2017-07-14T12:40:41.981Z,1015.716
2017-07-14T12:43:36.858Z,1015.676
2017-07-14T12:46:31.740Z,1015.666
2017-07-14T12:49:26.738Z,1015.620
2017-07-14T12:52:21.615Z,1015.629
2017-07-14T12:55:16.631Z,1015.572
2017-07-14T12:58:11.619Z,1015.515
2017-07-14T13:01:06.634Z,1015.503
2017-07-14T13:04:01.536Z,1015.460
2017-07-14T13:06:56.381Z,1015.438
2017-07-14T13:09:51.343Z,1015.422
2017-07-14T13:12:46.117Z,1015.400
2017-07-14T13:15:41.031Z,1015.363
2017-07-14T13:18:35.970Z,1015.338
2017-07-14T13:21:30.954Z,1015.303
2017-07-14T13:24:25.839Z,1015.319
2017-07-14T13:27:20.813Z,1015.336
2017-07-14T13:33:10.755Z,1015.338
2017-07-14T13:36:05.614Z,1015.364
2017-07-14T13:39:00.640Z,1015.354
2017-07-14T13:41:55.587Z,1015.339
2017-07-14T13:44:50.504Z,1015.313
2017-07-14T13:47:45.395Z,1015.308
2017-07-14T13:50:40.398Z,1015.298
2017-07-14T13:53:35.342Z,1015.287
2017-07-14T13:56:30.293Z,1015.268
2017-07-14T13:59:25.369Z,1015.278
2017-07-14T14:02:20.213Z,1015.254
2017-07-14T14:05:15.167Z,1015.247
2017-07-14T14:08:10.093Z,1015.204
2017-07-14T14:11:04.965Z,1015.215
2017-07-14T14:13:59.919Z,1015.222
2017-07-14T14:16:54.838Z,1015.199
2017-07-14T14:19:49.738Z,1015.198
2017-07-14T14:22:44.596Z,1015.201
2017-07-14T14:25:39.522Z,1015.232
2017-07-14T14:28:34.435Z,1015.216
2017-07-14T14:31:29.358Z,1015.199
2017-07-14T14:34:24.271Z,1015.204
2017-07-14T14:37:19.127Z,1015.170
2017-07-14T14:40:14.088Z,1015.170
2017-07-14T14:43:09.099Z,1015.112
2017-07-14T14:46:04.109Z,1015.070
2017-07-14T14:48:59.127Z,1015.096
2017-07-14T14:51:54.021Z,1015.109
2017-07-14T14:54:49.042Z,1015.082
2017-07-14T14:57:43.949Z,1015.047
2017-07-14T15:00:38.918Z,1014.992
2017-07-14T15:03:33.861Z,1014.964
2017-07-14T15:06:28.821Z,1014.959
2017-07-14T15:09:23.846Z,1014.930
2017-07-14T15:12:18.801Z,1014.882
2017-07-14T15:15:13.695Z,1014.881
2017-07-14T15:18:08.652Z,1014.887
2017-07-14T15:21:03.544Z,1014.861
2017-07-14T15:23:58.628Z,1014.847
2017-07-14T15:26:53.583Z,1014.851
2017-07-14T15:29:48.479Z,1014.835
2017-07-14T15:32:43.444Z,1014.852
2017-07-14T15:35:38.528Z,1014.828
2017-07-14T15:38:33.397Z,1014.799
2017-07-14T15:41:28.323Z,1014.821
2017-07-14T15:44:23.323Z,1014.840
2017-07-14T15:47:18.307Z,1014.794
2017-07-14T15:50:13.250Z,1014.761
2017-07-14T15:53:08.191Z,1014.729
2017-07-14T15:56:03.057Z,1014.728
2017-07-14T15:58:58.004Z,1014.723
2017-07-14T16:01:52.923Z,1014.738
2017-07-14T16:04:47.891Z,1014.753
2017-07-14T16:10:37.728Z,1014.763
2017-07-14T16:13:32.584Z,1014.728
2017-07-14T16:16:27.514Z,1014.738
2017-07-14T16:19:22.451Z,1014.722
2017-07-14T16:22:17.374Z,1014.737
2017-07-14T16:25:12.209Z,1014.714
2017-07-14T16:28:07.152Z,1014.687
2017-07-14T16:31:02.003Z,1014.696
2017-07-14T16:33:56.946Z,1014.684
2017-07-14T16:36:51.830Z,1014.670
2017-07-14T16:39:46.828Z,1014.688
2017-07-14T16:42:41.659Z,1014.671
2017-07-14T16:45:36.710Z,1014.682
2017-07-14T16:48:31.692Z,1014.691
2017-07-14T16:51:26.679Z,1014.668
2017-07-14T16:54:21.554Z,1014.683
2017-07-14T16:57:16.528Z,1014.661
2017-07-14T17:00:11.453Z,1014.637
2017-07-14T17:03:06.385Z,1014.646
2017-07-14T17:06:01.295Z,1014.613
2017-07-14T17:08:56.289Z,1014.601
2017-07-14T17:11:51.242Z,1014.585
2017-07-14T17:14:46.190Z,1014.562
2017-07-14T17:17:41.043Z,1014.572
2017-07-14T17:20:36.027Z,1014.558
2017-07-14T17:23:30.972Z,1014.577
2017-07-14T17:26:25.825Z,1014.626
2017-07-14T17:29:20.659Z,1014.599
2017-07-14T17:32:15.760Z,1014.586
2017-07-14T17:35:10.690Z,1014.573
2017-07-14T17:38:05.658Z,1014.575
2017-07-14T17:41:00.582Z,1014.590
2017-07-14T17:43:55.535Z,1014.602
2017-07-14T17:46:50.441Z,1014.599
2017-07-14T17:52:40.273Z,1014.529
2017-07-14T17:55:35.051Z,1014.543
2017-07-14T17:58:30.011Z,1014.534
2017-07-14T18:01:24.999Z,1014.549
2017-07-14T18:04:19.848Z,1014.563
2017-07-14T18:07:14.786Z,1014.561
2017-07-14T18:10:09.624Z,1014.605
2017-07-14T18:13:04.547Z,1014.603
2017-07-14T18:15:59.469Z,1014.593
2017-07-14T18:18:54.391Z,1014.609
2017-07-14T18:21:49.319Z,1014.594
2017-07-14T18:24:44.177Z,1014.572
2017-07-14T18:27:39.038Z,1014.603
2017-07-14T18:30:33.926Z,1014.611
2017-07-14T18:33:28.699Z,1014.609
2017-07-14T18:36:23.805Z,1014.644
2017-07-14T18:39:18.724Z,1014.644
2017-07-14T18:42:13.648Z,1014.661
2017-07-14T18:45:08.452Z,1014.650
2017-07-14T18:48:03.311Z,1014.629
2017-07-14T18:50:58.133Z,1014.638
2017-07-14T20:06:34.595Z,1014.994
2017-07-14T20:12:07.364Z,1015.029
2017-07-14T20:17:45.116Z,1015.082
2017-07-14T20:36:28.825Z,1015.137
2017-07-14T20:40:53.957Z,1015.166
2017-07-14T21:16:35.554Z,1015.227
2017-07-14T21:19:41.425Z,1015.219
2017-07-14T21:22:28.534Z,1015.175
2017-07-14T21:44:12.818Z,1015.347
2017-07-14T21:48:26.485Z,1015.367
2017-07-14T22:14:09.311Z,1015.476
2017-07-14T22:19:57.720Z,1015.540
